Time;durP1;ratioP1;P1;durP2;ratioP2;P2;SDS_P1;SDS_P2;PMS_P1;PMS_P2;Temp;Humidity;BMP_temperature;BMP_pressure;BME280_temperature;BME280_humidity;BME280_pressure;Samples;Min_cycle;Max_cycle;Signal;HPM_P1;HPM_P2
2023/08/17 00:01:32;;;;;;;4.90;2.53;;;16.40;94.60;;;;;;5141270;27;20046;-77
2023/08/17 00:04:18;;;;;;;5.93;2.10;;;16.00;94.50;;;;;;5097515;27;20043;-80
2023/08/17 00:07:01;;;;;;;4.53;2.30;;;16.40;94.60;;;;;;5125173;27;20070;-77
2023/08/17 00:09:47;;;;;;;5.22;2.40;;;16.40;94.70;;;;;;5123034;27;20074;-77
2023/08/17 00:12:39;;;;;;;5.97;2.58;;;16.40;94.70;;;;;;5122909;27;20048;-77
2023/08/17 00:15:25;;;;;;;4.15;2.50;;;16.40;94.70;;;;;;5097629;27;20066;-76
2023/08/17 00:18:17;;;;;;;6.28;2.22;;;16.30;94.60;;;;;;5121973;27;20051;-77
2023/08/17 00:21:03;;;;;;;6.15;2.60;;;16.30;94.70;;;;;;5141870;27;20122;-77
2023/08/17 00:28:28;;;;;;;5.82;2.45;;;16.30;94.70;;;;;;5047944;28;20099;-77
2023/08/17 00:31:21;;;;;;;4.68;2.33;;;16.20;94.70;;;;;;5046486;28;20041;-79
2023/08/17 00:34:08;;;;;;;7.30;2.97;;;16.20;94.80;;;;;;5029628;28;20049;-80
2023/08/17 00:37:12;;;;;;;6.43;2.50;;;16.20;94.70;;;;;;5108448;27;20473;-78
2023/08/17 00:40:02;;;;;;;8.15;2.67;;;16.20;94.90;;;;;;5066350;27;20143;-76
2023/08/17 00:42:54;;;;;;;7.30;2.60;;;16.20;94.90;;;;;;5106511;27;20054;-77
2023/08/17 00:45:53;;;;;;;6.95;2.85;;;16.10;95.00;;;;;;5123255;27;20050;-78
2023/08/17 00:49:13;;;;;;;5.60;3.10;;;16.10;95.00;;;;;;5124808;27;20045;-77
2023/08/17 00:52:18;;;;;;;3.78;2.50;;;16.10;95.10;;;;;;5137235;27;20476;-77
2023/08/17 00:55:23;;;;;;;5.43;2.90;;;15.80;95.00;;;;;;5144591;27;20050;-77
2023/08/17 00:58:09;;;;;;;5.65;2.80;;;16.00;95.10;;;;;;5123332;27;20108;-76
2023/08/17 01:00:55;;;;;;;6.65;2.92;;;16.00;95.10;;;;;;5132064;27;20046;-77
2023/08/17 01:04:08;;;;;;;7.63;3.13;;;16.00;95.20;;;;;;5114764;27;20393;-77
2023/08/17 01:07:13;;;;;;;6.70;3.03;;;16.10;95.30;;;;;;5109097;27;20083;-77
2023/08/17 01:10:01;;;;;;;5.80;2.72;;;15.90;95.30;;;;;;5112876;27;20054;-76
2023/08/17 01:13:26;;;;;;;8.63;3.20;;;15.20;95.20;;;;;;5129682;27;20054;-78
2023/08/17 01:16:50;;;;;;;6.97;3.35;;;15.90;95.40;;;;;;5088178;27;20051;-78
2023/08/17 01:19:38;;;;;;;6.15;3.10;;;15.80;95.30;;;;;;5108898;27;20394;-77
2023/08/17 01:22:36;;;;;;;5.45;3.15;;;15.80;95.50;;;;;;5101924;27;20092;-77
2023/08/17 01:25:03;;;;;;;5.90;2.92;;;15.80;95.60;;;;;;5126771;27;20047;-78
2023/08/17 01:27:45;;;;;;;5.07;2.45;;;15.70;95.60;;;;;;5050670;27;20051;-78
2023/08/17 01:31:00;;;;;;;6.72;2.70;;;15.80;95.70;;;;;;5124429;27;20053;-77
2023/08/17 01:34:09;;;;;;;4.57;2.80;;;15.70;95.80;;;;;;5104044;27;20174;-77
2023/08/17 01:37:24;;;;;;;5.35;2.80;;;15.20;95.70;;;;;;5104275;27;20034;-76
2023/08/17 01:40:29;;;;;;;5.78;2.95;;;15.70;95.80;;;;;;5110604;27;20035;-77
2023/08/17 01:43:23;;;;;;;5.28;2.80;;;15.60;95.80;;;;;;5096632;27;20044;-77
2023/08/17 01:46:25;;;;;;;5.93;2.70;;;15.60;95.90;;;;;;5126756;27;20039;-77
2023/08/17 01:49:10;;;;;;;5.85;2.63;;;15.60;96.00;;;;;;5082544;27;20047;-75
2023/08/17 01:52:03;;;;;;;5.10;2.85;;;15.50;96.00;;;;;;5127120;27;20401;-78
2023/08/17 01:54:49;;;;;;;4.88;2.60;;;15.60;96.10;;;;;;5125942;27;20099;-77
2023/08/17 01:57:36;;;;;;;6.15;2.92;;;15.40;96.10;;;;;;5088312;27;20495;-77
2023/08/17 02:00:23;;;;;;;5.95;2.83;;;15.40;96.20;;;;;;5089851;27;20057;-80
2023/08/17 02:03:25;;;;;;;;;;;15.40;96.30;;;;;;5122721;27;20251;-79
2023/08/17 02:06:07;;;;;;;7.60;2.90;;;15.40;96.40;;;;;;5123638;27;20018;-78
2023/08/17 02:08:58;;;;;;;8.07;3.75;;;15.40;96.20;;;;;;5100335;27;20043;-77
2023/08/17 02:11:42;;;;;;;7.78;3.10;;;15.40;96.20;;;;;;5068245;27;20067;-77
2023/08/17 02:14:46;;;;;;;4.63;2.38;;;15.30;96.40;;;;;;5127744;27;20046;-81
2023/08/17 02:17:33;;;;;;;6.50;3.33;;;15.30;96.50;;;;;;5107888;27;20047;-77
2023/08/17 02:20:25;;;;;;;5.50;2.70;;;15.30;96.70;;;;;;5087426;27;20055;-78
2023/08/17 02:26:00;;;;;;;4.53;2.65;;;15.30;96.60;;;;;;5113784;27;20160;-77
2023/08/17 02:29:04;;;;;;;9.15;3.00;;;15.30;96.70;;;;;;5109642;27;20047;-76
2023/08/17 02:32:08;;;;;;;6.75;2.90;;;15.30;96.80;;;;;;5126049;27;20371;-77
2023/08/17 02:34:34;;;;;;;6.88;2.88;;;15.30;96.90;;;;;;5129188;27;20045;-77
2023/08/17 02:37:08;;;;;;;6.93;2.90;;;15.30;96.80;;;;;;5096247;27;20425;-76
2023/08/17 02:39:54;;;;;;;8.60;3.97;;;15.30;97.00;;;;;;5125617;27;20122;-77
2023/08/17 02:42:51;;;;;;;8.43;3.13;;;15.30;97.20;;;;;;5083505;27;20095;-76
2023/08/17 02:45:38;;;;;;;5.47;2.97;;;15.30;97.10;;;;;;5123361;27;20045;-76
2023/08/17 02:48:23;;;;;;;7.03;2.75;;;15.30;97.20;;;;;;5124920;27;20048;-81
2023/08/17 02:51:23;;;;;;;6.53;2.90;;;15.40;97.40;;;;;;5071701;27;20978;-78
2023/08/17 02:54:41;;;;;;;6.85;3.05;;;15.30;97.30;;;;;;5100924;27;20047;-79
2023/08/17 02:57:46;;;;;;;7.55;3.10;;;15.30;97.40;;;;;;5126404;27;20050;-78
2023/08/17 03:00:41;;;;;;;6.20;2.75;;;15.30;97.30;;;;;;5122250;27;20054;-81
2023/08/17 03:03:42;;;;;;;6.70;3.33;;;15.40;97.40;;;;;;5093417;27;20050;-76
2023/08/17 03:06:59;;;;;;;5.85;3.15;;;15.40;97.50;;;;;;5102791;27;20046;-77
2023/08/17 03:10:02;;;;;;;6.88;3.00;;;15.30;97.50;;;;;;5106728;27;20047;-76
2023/08/17 03:13:06;;;;;;;7.03;3.25;;;15.30;97.50;;;;;;5091356;27;20392;-76
2023/08/17 03:15:54;;;;;;;6.10;3.15;;;15.40;97.70;;;;;;5123896;27;20043;-75
2023/08/17 03:18:41;;;;;;;5.00;2.80;;;15.40;97.80;;;;;;5083068;27;20043;-76
2023/08/17 03:21:34;;;;;;;4.38;3.00;;;15.40;97.80;;;;;;5106606;27;20036;-78
2023/08/17 03:24:22;;;;;;;7.53;2.90;;;15.40;97.90;;;;;;5090649;27;20688;-79
2023/08/17 03:27:21;;;;;;;7.03;2.78;;;15.40;97.90;;;;;;5116696;27;20047;-76
2023/08/17 03:30:06;;;;;;;7.13;3.40;;;15.40;98.10;;;;;;5078915;27;20063;-77
2023/08/17 03:32:52;;;;;;;6.32;2.78;;;15.40;98.00;;;;;;5081791;28;20047;-76
2023/08/17 03:35:38;;;;;;;6.32;2.55;;;15.40;98.10;;;;;;5065645;28;20485;-76
2023/08/17 03:38:32;;;;;;;6.10;2.25;;;15.30;98.20;;;;;;5080719;28;20653;-77
2023/08/17 03:41:23;;;;;;;8.15;3.05;;;15.40;98.20;;;;;;5065594;28;20052;-76
2023/08/17 03:44:09;;;;;;;4.70;2.80;;;15.40;98.30;;;;;;5080847;28;20125;-76
2023/08/17 03:46:57;;;;;;;6.07;2.50;;;15.40;98.40;;;;;;5055479;28;20052;-76
2023/08/17 03:49:58;;;;;;;5.68;2.70;;;15.40;98.40;;;;;;5066677;28;20056;-76
2023/08/17 03:52:46;;;;;;;4.25;2.80;;;15.40;98.40;;;;;;5065498;28;20587;-79
2023/08/17 03:55:31;;;;;;;;;;;15.40;98.40;;;;;;5033477;28;20068;-76
2023/08/17 03:58:38;;;;;;;5.97;3.17;;;15.40;98.70;;;;;;5084213;28;19964;-76
2023/08/17 04:01:24;;;;;;;4.97;3.10;;;15.40;98.30;;;;;;5083633;28;20040;-76
2023/08/17 04:04:13;;;;;;;7.88;3.38;;;15.40;98.20;;;;;;5068619;28;20726;-76
2023/08/17 04:07:51;;;;;;;6.82;3.40;;;15.40;98.30;;;;;;5075618;28;20135;-79
2023/08/17 04:11:11;;;;;;;8.93;3.88;;;15.40;98.40;;;;;;5000724;28;20049;-77
2023/08/17 04:14:03;;;;;;;7.15;4.05;;;15.30;98.50;;;;;;4965913;28;20052;-76
2023/08/17 04:16:48;;;;;;;8.68;4.72;;;15.30;98.50;;;;;;4978520;28;20045;-74
2023/08/17 04:19:36;;;;;;;8.95;4.25;;;15.30;98.50;;;;;;5003394;28;20049;-76
2023/08/17 04:25:46;;;;;;;9.18;4.03;;;15.20;98.70;;;;;;4987720;28;20132;-76
2023/08/17 04:32:18;;;;;;;6.07;3.80;;;15.20;98.80;;;;;;5020619;28;20046;-76
2023/08/17 04:35:09;;;;;;;5.65;4.13;;;15.00;98.80;;;;;;5003405;28;20045;-77
2023/08/17 04:38:16;;;;;;;7.28;4.28;;;15.30;99.00;;;;;;5026646;28;20049;-77
2023/08/17 04:40:53;;;;;;;6.72;3.78;;;15.30;99.00;;;;;;5010713;28;20141;-77
2023/08/17 04:43:46;;;;;;;7.53;3.65;;;15.30;99.00;;;;;;4998782;28;20063;-76
2023/08/17 04:46:32;;;;;;;7.40;3.60;;;15.40;99.20;;;;;;5128065;27;20043;-77
2023/08/17 04:49:29;;;;;;;7.78;3.05;;;15.40;99.20;;;;;;5109951;27;20086;-77
2023/08/17 04:52:20;;;;;;;6.43;3.45;;;15.50;99.40;;;;;;5132722;27;20130;-76
2023/08/17 04:55:28;;;;;;;5.03;3.40;;;15.50;99.30;;;;;;5110367;27;20050;-76
2023/08/17 04:57:55;;;;;;;4.47;2.78;;;15.50;99.30;;;;;;5124366;27;20058;-77
2023/08/17 05:01:13;;;;;;;7.00;3.33;;;15.50;99.20;;;;;;5098464;27;20082;-80
2023/08/17 05:04:10;;;;;;;5.93;3.08;;;15.60;99.40;;;;;;5127265;27;20420;-77
2023/08/17 05:07:02;;;;;;;6.57;2.75;;;15.60;99.30;;;;;;5126351;27;20058;-76
2023/08/17 05:09:30;;;;;;;5.20;2.95;;;15.60;99.40;;;;;;5102490;27;20043;-77
2023/08/17 05:11:56;;;;;;;6.43;2.90;;;15.60;99.50;;;;;;5124028;27;20051;-76
2023/08/17 05:14:21;;;;;;;7.25;2.70;;;15.60;99.50;;;;;;5103249;27;20055;-77
2023/08/17 05:16:47;;;;;;;5.80;2.80;;;15.70;99.50;;;;;;5091437;27;20146;-77
2023/08/17 05:19:13;;;;;;;4.22;2.40;;;15.70;99.60;;;;;;5126413;27;20039;-76
2023/08/17 05:21:39;;;;;;;5.32;2.58;;;15.70;99.60;;;;;;5091204;27;20130;-77
2023/08/17 05:24:06;;;;;;;6.97;2.92;;;15.70;99.60;;;;;;5110255;27;20039;-77
2023/08/17 05:26:32;;;;;;;5.72;3.45;;;15.70;99.60;;;;;;5080458;27;20130;-78
2023/08/17 05:28:58;;;;;;;5.53;2.85;;;16.20;99.80;;;;;;5107849;27;20444;-77
2023/08/17 05:31:23;;;;;;;3.70;2.60;;;15.70;99.60;;;;;;5107643;27;20082;-76
2023/08/17 05:33:49;;;;;;;3.65;2.67;;;15.70;99.70;;;;;;5094259;27;20044;-75
2023/08/17 05:36:15;;;;;;;3.85;2.53;;;15.70;99.70;;;;;;5092654;27;20094;-76
2023/08/17 05:38:40;;;;;;;4.85;2.67;;;16.40;99.80;;;;;;5092608;27;20070;-78
2023/08/17 05:41:06;;;;;;;4.45;2.22;;;15.80;99.60;;;;;;5077838;27;20624;-76
2023/08/17 05:43:32;;;;;;;6.40;2.70;;;15.80;99.50;;;;;;5091427;27;20548;-78
2023/08/17 05:46:04;;;;;;;3.92;2.17;;;15.90;99.50;;;;;;5093634;27;20523;-76
2023/08/17 05:48:36;;;;;;;6.18;2.42;;;15.90;99.50;;;;;;5106064;27;20047;-80
2023/08/17 05:51:02;;;;;;;6.18;2.17;;;15.60;99.30;;;;;;5094141;27;20039;-79
2023/08/17 05:53:28;;;;;;;4.40;2.50;;;15.90;99.40;;;;;;5104908;27;20047;-77
2023/08/17 05:56:15;;;;;;;4.68;2.22;;;16.00;99.30;;;;;;5107131;27;20043;-77
2023/08/17 05:59:04;;;;;;;4.88;2.10;;;16.00;99.30;;;;;;5072192;27;20089;-78
2023/08/17 06:01:31;;;;;;;5.97;2.22;;;16.00;99.30;;;;;;5109635;27;20042;-76
2023/08/17 06:04:18;;;;;;;3.10;1.95;;;16.10;99.20;;;;;;5122750;27;20074;-75
2023/08/17 06:06:59;;;;;;;5.20;2.20;;;16.10;99.10;;;;;;5104906;27;20528;-73
2023/08/17 06:09:37;;;;;;;4.18;1.67;;;16.20;99.10;;;;;;5064624;27;20405;-75
2023/08/17 06:16:53;;;;;;;3.92;1.70;;;16.30;99.10;;;;;;5106237;27;20413;-74
2023/08/17 06:20:09;;;;;;;3.08;1.85;;;16.30;98.60;;;;;;5126382;27;20043;-75
2023/08/17 06:23:08;;;;;;;3.38;1.60;;;16.50;98.50;;;;;;5123168;27;20189;-75
2023/08/17 06:26:07;;;;;;;3.92;1.77;;;16.60;98.60;;;;;;5110303;27;20054;-74
2023/08/17 06:29:19;;;;;;;3.55;1.50;;;16.60;98.10;;;;;;5110765;27;20030;-76
2023/08/17 06:35:24;;;;;;;6.25;1.80;;;16.90;97.80;;;;;;5127345;27;20100;-76
2023/08/17 06:38:08;;;;;;;4.55;1.88;;;17.10;97.60;;;;;;5111502;27;20035;-77
2023/08/17 06:40:33;;;;;;;5.72;1.80;;;17.20;97.30;;;;;;5114704;27;20050;-76
2023/08/17 06:42:59;;;;;;;3.65;1.67;;;17.30;97.20;;;;;;5097775;27;20050;-80
2023/08/17 06:45:25;;;;;;;4.93;1.50;;;17.50;97.00;;;;;;5082234;27;20054;-79
2023/08/17 06:47:51;;;;;;;3.28;1.40;;;17.70;96.70;;;;;;5109949;27;20043;-76
2023/08/17 06:50:17;;;;;;;3.72;1.42;;;17.80;96.10;;;;;;5093093;27;20215;-80
2023/08/17 06:52:43;;;;;;;4.63;1.58;;;18.00;95.70;;;;;;5094980;27;20051;-80
2023/08/17 06:55:10;;;;;;;3.90;1.20;;;18.10;95.30;;;;;;5093476;27;20500;-79
2023/08/17 06:57:36;;;;;;;3.13;1.40;;;18.30;94.80;;;;;;5103990;27;20615;-80
2023/08/17 07:00:05;;;;;;;3.30;1.20;;;18.50;94.20;;;;;;5092103;27;20050;-77
2023/08/17 07:02:30;;;;;;;3.90;1.17;;;18.60;93.40;;;;;;5108690;27;20187;-79
2023/08/17 07:05:08;;;;;;;6.47;1.20;;;18.80;92.60;;;;;;5094502;27;20158;-75
2023/08/17 07:07:55;;;;;;;2.70;1.08;;;19.00;91.90;;;;;;5057800;28;20707;-79
2023/08/17 07:10:39;;;;;;;3.63;1.15;;;19.10;91.20;;;;;;5026589;28;20438;-78
2023/08/17 07:13:05;;;;;;;2.95;1.42;;;19.40;90.50;;;;;;5009994;28;20052;-77
2023/08/17 07:15:49;;;;;;;4.40;1.30;;;19.50;89.90;;;;;;5043241;28;20052;-78
2023/08/17 07:18:18;;;;;;;3.25;1.13;;;19.60;87.10;;;;;;5059061;28;20033;-77
2023/08/17 07:21:23;;;;;;;3.42;1.13;;;19.70;86.90;;;;;;5015250;28;20048;-78
2023/08/17 07:23:50;;;;;;;2.35;1.10;;;19.80;84.40;;;;;;5057955;28;20052;-81
2023/08/17 07:26:20;;;;;;;2.97;1.13;;;20.00;84.70;;;;;;5043436;28;20055;-82
2023/08/17 07:28:48;;;;;;;2.15;0.90;;;20.20;83.10;;;;;;5022503;28;20159;-80
2023/08/17 07:31:18;;;;;;;2.20;1.17;;;20.50;81.10;;;;;;5024656;28;20051;-77
2023/08/17 07:33:46;;;;;;;2.75;0.88;;;20.60;79.00;;;;;;5059856;28;20140;-77
2023/08/17 07:36:18;;;;;;;4.18;0.95;;;20.60;77.20;;;;;;5025856;28;20078;-79
2023/08/17 07:38:43;;;;;;;2.42;0.90;;;20.60;76.90;;;;;;5061580;27;20137;-81
2023/08/17 07:41:09;;;;;;;3.70;1.13;;;20.50;76.60;;;;;;5085231;27;20067;-81
2023/08/17 07:43:35;;;;;;;2.05;1.00;;;20.40;76.00;;;;;;5076497;27;20043;-77
2023/08/17 07:46:02;;;;;;;4.18;1.00;;;20.40;76.20;;;;;;5099713;27;20097;-80
2023/08/17 07:48:33;;;;;;;3.45;1.10;;;20.30;76.50;;;;;;5085659;27;20044;-80
2023/08/17 07:50:59;;;;;;;2.65;1.00;;;20.30;76.50;;;;;;5105256;27;20036;-84
2023/08/17 07:53:25;;;;;;;3.15;1.15;;;20.20;76.20;;;;;;5075670;27;20043;-82
2023/08/17 07:55:51;;;;;;;2.10;1.00;;;20.20;76.00;;;;;;5075860;27;20050;-84
2023/08/17 07:58:22;;;;;;;3.78;1.10;;;20.30;75.50;;;;;;5085734;27;20135;-83
2023/08/17 08:00:48;;;;;;;3.60;1.17;;;20.40;75.50;;;;;;5061573;27;20043;-82
2023/08/17 08:03:15;;;;;;;2.42;0.90;;;20.50;75.10;;;;;;5124087;27;20062;-82
2023/08/17 08:05:40;;;;;;;3.58;1.00;;;20.60;73.20;;;;;;5079655;27;20130;-79
2023/08/17 08:08:07;;;;;;;3.33;1.10;;;20.60;72.40;;;;;;5096315;27;20049;-83
2023/08/17 08:10:33;;;;;;;2.70;1.10;;;20.70;72.00;;;;;;5078955;27;20052;-82
2023/08/17 08:12:59;;;;;;;2.53;1.00;;;20.80;70.90;;;;;;5112089;27;20046;-84
2023/08/17 08:15:25;;;;;;;1.92;0.80;;;20.80;69.70;;;;;;5075418;27;20103;-81
2023/08/17 08:17:50;;;;;;;4.25;1.40;;;20.80;69.60;;;;;;5108342;27;20093;-83
2023/08/17 08:20:16;;;;;;;2.40;1.15;;;20.80;68.40;;;;;;5126747;27;20108;-85
2023/08/17 08:22:43;;;;;;;2.17;0.90;;;20.80;68.20;;;;;;5091776;27;20051;-86
2023/08/17 08:25:08;;;;;;;2.72;1.20;;;20.70;68.10;;;;;;5093116;27;20126;-85
2023/08/17 08:27:35;;;;;;;3.00;0.95;;;20.50;68.10;;;;;;5091743;27;20143;-85
2023/08/17 08:30:01;;;;;;;5.80;1.20;;;20.40;68.80;;;;;;5092694;27;20042;-85
2023/08/17 08:32:27;;;;;;;2.33;1.00;;;20.40;69.60;;;;;;5066867;27;20054;-76
2023/08/17 08:34:52;;;;;;;3.47;1.20;;;20.50;70.20;;;;;;5107325;27;20043;-82
2023/08/17 08:37:18;;;;;;;2.92;1.10;;;20.60;69.90;;;;;;5091260;27;20054;-82
2023/08/17 08:39:53;;;;;;;5.18;1.23;;;20.70;69.60;;;;;;5113576;27;20078;-82
2023/08/17 08:42:19;;;;;;;2.67;0.80;;;20.80;68.60;;;;;;5078109;27;20074;-83
2023/08/17 08:44:45;;;;;;;3.85;1.00;;;20.80;68.60;;;;;;5111916;27;20074;-82
2023/08/17 08:47:12;;;;;;;3.60;1.00;;;20.90;67.50;;;;;;5090670;27;20050;-83
2023/08/17 08:49:57;;;;;;;3.22;0.90;;;20.90;66.50;;;;;;5113837;27;20082;-85
2023/08/17 08:52:31;;;;;;;2.95;1.00;;;21.00;65.90;;;;;;5110962;27;20158;-86
2023/08/17 08:54:58;;;;;;;2.65;1.00;;;21.10;65.30;;;;;;5081958;27;20872;-84
2023/08/17 08:57:26;;;;;;;3.10;0.90;;;21.30;63.70;;;;;;5107119;27;20069;-86
2023/08/17 08:59:53;;;;;;;4.15;0.90;;;21.40;63.00;;;;;;5109774;27;20519;-84
2023/08/17 09:02:19;;;;;;;4.35;0.80;;;21.60;61.80;;;;;;5090880;27;20054;-85
2023/08/17 09:04:45;;;;;;;2.75;0.82;;;21.80;59.30;;;;;;5077626;27;20485;-82
2023/08/17 09:07:14;;;;;;;3.03;1.17;;;21.90;57.10;;;;;;5108327;27;20054;-82
2023/08/17 09:09:39;;;;;;;2.60;0.95;;;22.00;54.70;;;;;;5107325;27;20116;-82
2023/08/17 09:12:09;;;;;;;4.07;1.10;;;22.00;52.20;;;;;;5108380;27;20544;-80
2023/08/17 09:14:37;;;;;;;1.63;0.60;;;22.30;50.90;;;;;;5110998;27;20054;-80
2023/08/17 09:17:04;;;;;;;3.33;1.08;;;22.60;48.10;;;;;;5107251;27;20078;-81
2023/08/17 09:19:32;;;;;;;3.63;1.00;;;22.80;44.80;;;;;;5067338;27;20054;-81
2023/08/17 09:21:59;;;;;;;2.70;0.98;;;23.10;42.90;;;;;;5107254;27;20120;-81
2023/08/17 09:24:34;;;;;;;3.72;1.30;;;23.50;39.00;;;;;;5128309;27;20042;-81
2023/08/17 09:27:00;;;;;;;3.40;0.90;;;23.80;34.20;;;;;;5081925;27;20081;-80
2023/08/17 09:29:26;;;;;;;3.60;0.90;;;24.00;31.10;;;;;;5085912;27;20122;-81
2023/08/17 09:31:51;;;;;;;3.90;1.05;;;24.20;27.90;;;;;;5092736;27;20047;-81
2023/08/17 09:34:19;;;;;;;3.00;0.70;;;24.50;27.10;;;;;;5108616;27;20046;-81
2023/08/17 09:36:47;;;;;;;2.78;0.90;;;24.80;23.00;;;;;;5087937;27;20451;-81
2023/08/17 09:39:16;;;;;;;6.53;1.20;;;25.10;18.00;;;;;;5119440;27;20559;-81
2023/08/17 09:41:42;;;;;;;4.97;1.08;;;25.30;12.40;;;;;;5085595;27;20063;-81
2023/08/17 09:44:09;;;;;;;2.67;0.82;;;25.10;9.80;;;;;;5109714;27;20363;-81
2023/08/17 09:46:35;;;;;;;2.63;0.90;;;25.10;5.50;;;;;;5107966;27;20483;-81
2023/08/17 09:49:06;;;;;;;3.92;1.10;;;24.90;7.10;;;;;;5092958;27;20043;-80
2023/08/17 09:51:35;;;;;;;5.65;0.98;;;24.90;5.00;;;;;;5093960;27;20051;-82
2023/08/17 09:54:01;;;;;;;5.55;0.80;;;24.80;5.20;;;;;;5078616;27;20043;-82
2023/08/17 09:56:27;;;;;;;3.72;0.90;;;24.60;4.90;;;;;;5087129;27;20061;-83
2023/08/17 09:58:53;;;;;;;4.78;0.85;;;24.60;7.30;;;;;;5104486;27;20484;-82
2023/08/17 10:01:21;;;;;;;4.80;1.08;;;24.60;5.30;;;;;;5106820;27;20062;-82
2023/08/17 10:03:49;;;;;;;5.00;1.27;;;24.50;2.60;;;;;;5098905;27;20478;-83
2023/08/17 10:06:20;;;;;;;4.22;0.98;;;24.60;2.20;;;;;;5111845;27;20028;-82
2023/08/17 10:08:49;;;;;;;5.18;1.13;;;24.60;1.00;;;;;;5108065;27;20095;-84
2023/08/17 10:11:19;;;;;;;3.28;1.00;;;24.70;1.00;;;;;;5104595;27;20047;-82
2023/08/17 10:13:53;;;;;;;3.78;1.23;;;25.00;1.00;;;;;;5106723;27;20107;-83
2023/08/17 10:16:49;;;;;;;2.50;0.80;;;25.20;1.00;;;;;;5090356;27;20082;-79
2023/08/17 10:19:33;;;;;;;3.70;1.10;;;25.40;1.00;;;;;;5094182;27;20043;-82
2023/08/17 10:22:10;;;;;;;4.03;0.90;;;25.60;1.00;;;;;;5088479;27;20051;-82
2023/08/17 10:24:38;;;;;;;3.28;0.90;;;25.70;1.00;;;;;;5110966;27;20083;-79
2023/08/17 10:27:06;;;;;;;5.45;0.90;;;25.60;1.00;;;;;;5095631;27;20070;-82
2023/08/17 10:29:33;;;;;;;2.17;0.77;;;25.70;1.00;;;;;;5093678;27;20031;-81
2023/08/17 10:32:01;;;;;;;3.55;0.90;;;25.70;1.00;;;;;;5105090;27;20046;-81
2023/08/17 10:34:28;;;;;;;4.57;1.25;;;25.90;1.00;;;;;;5087998;27;20051;-80
2023/08/17 10:36:57;;;;;;;2.17;0.70;;;26.30;1.00;;;;;;5097643;27;20038;-80
2023/08/17 10:39:26;;;;;;;2.58;0.85;;;26.70;1.00;;;;;;5109795;27;20089;-80
2023/08/17 10:41:52;;;;;;;1.45;0.70;;;26.90;1.00;;;;;;5089834;27;20062;-81
2023/08/17 10:44:41;;;;;;;1.70;0.68;;;27.20;1.00;;;;;;5106392;27;20244;-80
2023/08/17 10:47:26;;;;;;;1.83;0.70;;;27.30;1.00;;;;;;5074294;27;20050;-80
2023/08/17 10:49:59;;;;;;;2.63;1.10;;;27.50;99.90;;;;;;5108847;27;20060;-81
2023/08/17 10:52:37;;;;;;;2.72;0.77;;;27.50;99.90;;;;;;5085718;27;20602;-82
2023/08/17 10:55:15;;;;;;;4.00;0.95;;;27.70;99.90;;;;;;5104176;27;20050;-83
2023/08/17 10:57:42;;;;;;;5.60;0.88;;;27.50;99.90;;;;;;5088134;27;20728;-82
2023/08/17 11:00:20;;;;;;;2.85;0.80;;;27.60;99.90;;;;;;5068607;27;20419;-77
2023/08/17 11:03:00;;;;;;;3.40;0.90;;;27.50;99.90;;;;;;5094968;27;20047;-81
2023/08/17 11:05:37;;;;;;;2.45;0.77;;;27.60;99.90;;;;;;5108731;27;20042;-83
2023/08/17 11:08:05;;;;;;;3.70;0.98;;;27.70;99.90;;;;;;5106101;27;20058;-79
2023/08/17 11:10:31;;;;;;;3.05;0.80;;;27.70;99.90;;;;;;5061195;27;20046;-81
2023/08/17 11:13:02;;;;;;;2.50;0.90;;;28.00;99.90;;;;;;5074590;27;20055;-79
2023/08/17 11:15:42;;;;;;;2.92;0.80;;;28.20;99.90;;;;;;5101353;27;20050;-79
2023/08/17 11:18:09;;;;;;;4.57;0.80;;;28.30;99.90;;;;;;5104689;27;20140;-79
2023/08/17 11:20:37;;;;;;;7.50;1.23;;;28.40;99.90;;;;;;5105452;27;20041;-79
2023/08/17 11:23:04;;;;;;;2.30;0.77;;;28.50;68.80;;;;;;5108988;27;20077;-79
2023/08/17 11:25:32;;;;;;;2.08;0.80;;;28.60;1.00;;;;;;5089640;27;20039;-80
2023/08/17 11:27:59;;;;;;;3.67;0.90;;;28.60;1.00;;;;;;5074984;27;20168;-81
2023/08/17 11:30:27;;;;;;;4.90;1.00;;;28.70;1.00;;;;;;5093329;27;20128;-81
2023/08/17 11:32:54;;;;;;;2.30;1.13;;;28.80;99.90;;;;;;5087377;27;20713;-79
2023/08/17 11:35:21;;;;;;;3.00;0.88;;;28.80;99.90;;;;;;5086498;27;20045;-80
2023/08/17 11:37:48;;;;;;;5.43;1.00;;;28.80;99.90;;;;;;5104605;27;20050;-81
2023/08/17 11:40:14;;;;;;;3.47;0.93;;;28.80;99.90;;;;;;5088206;27;20071;-80
2023/08/17 11:42:41;;;;;;;4.88;1.20;;;28.60;99.90;;;;;;5099938;27;20054;-82
2023/08/17 11:45:09;;;;;;;5.47;0.90;;;28.70;1.00;;;;;;5101119;27;20054;-79
2023/08/17 11:47:39;;;;;;;2.63;1.10;;;28.70;1.00;;;;;;5106583;27;20054;-78
2023/08/17 11:50:08;;;;;;;5.18;0.90;;;28.50;1.00;;;;;;5103847;27;20118;-81
2023/08/17 11:52:36;;;;;;;3.85;0.90;;;28.60;1.00;;;;;;5100561;27;20043;-80
2023/08/17 11:55:06;;;;;;;2.90;0.85;;;28.60;1.00;;;;;;5090254;27;20473;-79
2023/08/17 11:57:33;;;;;;;6.25;1.80;;;28.40;1.00;;;;;;5104755;27;20076;-80
2023/08/17 12:00:00;;;;;;;3.20;1.00;;;28.40;1.00;;;;;;5104863;27;20078;-80
2023/08/17 12:02:27;;;;;;;3.88;1.00;;;28.50;99.90;;;;;;5077110;27;20038;-80
2023/08/17 12:04:55;;;;;;;4.78;1.20;;;28.40;1.00;;;;;;5106894;27;20050;-81
2023/08/17 12:07:23;;;;;;;2.47;1.08;;;28.20;99.90;;;;;;5088180;27;20397;-81
2023/08/17 12:09:49;;;;;;;3.28;1.00;;;28.10;1.00;;;;;;5105229;27;20047;-80
2023/08/17 12:12:24;;;;;;;6.28;1.27;;;28.00;30.20;;;;;;5087768;27;20045;-80
2023/08/17 12:14:50;;;;;;;3.83;1.23;;;27.90;99.90;;;;;;5084698;27;20046;-80
2023/08/17 12:17:18;;;;;;;5.05;0.95;;;27.80;99.90;;;;;;5103831;27;20062;-80
2023/08/17 12:19:44;;;;;;;3.65;1.00;;;27.60;99.90;;;;;;5100713;27;20114;-80
2023/08/17 12:22:12;;;;;;;4.25;1.38;;;27.40;99.90;;;;;;5072068;27;20477;-81
2023/08/17 12:24:38;;;;;;;2.72;1.00;;;27.30;99.90;;;;;;5103514;27;20047;-80
2023/08/17 12:27:05;;;;;;;4.38;1.20;;;27.20;99.90;;;;;;5088848;27;20067;-80
2023/08/17 12:29:31;;;;;;;4.47;1.58;;;27.00;99.90;;;;;;5104929;27;20088;-80
2023/08/17 12:32:01;;;;;;;2.53;1.00;;;26.90;99.90;;;;;;5101418;27;20385;-80
2023/08/17 12:34:28;;;;;;;4.53;1.17;;;26.70;99.90;;;;;;5105873;27;20110;-80
2023/08/17 12:36:54;;;;;;;3.30;1.23;;;26.60;99.90;;;;;;5104663;27;20585;-79
2023/08/17 12:39:19;;;;;;;5.57;1.38;;;26.60;99.90;;;;;;5090284;27;20118;-81
2023/08/17 12:41:45;;;;;;;3.22;1.38;;;26.60;99.90;;;;;;5070218;27;20038;-80
2023/08/17 12:44:13;;;;;;;3.00;1.25;;;26.70;1.00;;;;;;5072860;27;20051;-80
2023/08/17 12:46:40;;;;;;;3.47;1.33;;;26.60;1.00;;;;;;5103148;27;20533;-81
2023/08/17 12:49:05;;;;;;;3.63;1.23;;;26.60;1.00;;;;;;5085304;27;20116;-81
2023/08/17 12:51:31;;;;;;;4.85;1.30;;;26.60;1.00;;;;;;5103447;27;20059;-81
2023/08/17 12:53:57;;;;;;;6.47;1.20;;;26.50;1.00;;;;;;5099663;27;20043;-81
2023/08/17 12:56:23;;;;;;;4.75;1.17;;;26.50;1.00;;;;;;5103865;27;20031;-81
2023/08/17 12:58:49;;;;;;;4.38;1.25;;;26.40;1.00;;;;;;5088614;27;20068;-81
2023/08/17 13:01:14;;;;;;;3.38;1.23;;;26.30;1.00;;;;;;5083694;27;20040;-81
2023/08/17 13:03:40;;;;;;;15.32;1.70;;;26.20;1.00;;;;;;5091785;27;20128;-80
2023/08/17 13:06:07;;;;;;;5.68;1.30;;;26.20;1.00;;;;;;5108887;27;20039;-81
2023/08/17 13:08:33;;;;;;;4.75;1.30;;;26.30;1.00;;;;;;5104326;27;21715;-80
2023/08/17 13:11:00;;;;;;;4.35;1.25;;;26.30;1.00;;;;;;5090608;27;20055;-80
2023/08/17 13:13:25;;;;;;;4.72;1.33;;;26.30;1.00;;;;;;5107052;27;20125;-80
2023/08/17 13:15:51;;;;;;;5.05;1.20;;;26.20;1.00;;;;;;5075989;27;20039;-81
2023/08/17 13:18:17;;;;;;;4.05;1.23;;;26.20;1.00;;;;;;5107181;27;20047;-82
2023/08/17 13:20:43;;;;;;;3.25;1.10;;;26.20;1.00;;;;;;5094969;27;20239;-81
2023/08/17 13:23:09;;;;;;;4.97;1.33;;;26.00;1.00;;;;;;5090221;27;20043;-82
2023/08/17 13:25:35;;;;;;;4.45;1.17;;;25.70;1.00;;;;;;5095488;27;20055;-83
2023/08/17 13:28:01;;;;;;;4.95;1.40;;;25.60;1.00;;;;;;5084386;27;20594;-83
2023/08/17 13:30:26;;;;;;;4.05;1.23;;;25.40;1.00;;;;;;5089305;27;20043;-81
2023/08/17 13:32:58;;;;;;;5.97;1.60;;;25.10;1.00;;;;;;5073734;27;20041;-82
2023/08/17 13:35:24;;;;;;;5.20;1.00;;;25.00;1.00;;;;;;5058899;27;20047;-81
2023/08/17 13:37:53;;;;;;;5.10;1.30;;;24.90;1.00;;;;;;5102681;27;20693;-82
2023/08/17 13:40:20;;;;;;;6.70;1.45;;;24.70;1.00;;;;;;5105572;27;20054;-81
2023/08/17 13:42:46;;;;;;;4.38;1.33;;;24.60;1.00;;;;;;5108610;27;20086;-82
2023/08/17 13:45:11;;;;;;;3.70;1.50;;;24.50;1.00;;;;;;5064948;27;20569;-81
2023/08/17 13:47:39;;;;;;;3.92;1.73;;;24.40;1.00;;;;;;5106080;27;20441;-83
2023/08/17 13:50:05;;;;;;;4.70;1.48;;;24.30;1.00;;;;;;5100928;27;20134;-82
2023/08/17 13:52:31;;;;;;;3.08;1.23;;;24.30;1.00;;;;;;5104432;27;20412;-82
2023/08/17 13:54:57;;;;;;;4.35;1.48;;;24.30;1.00;;;;;;5075169;27;20053;-82
2023/08/17 13:57:23;;;;;;;6.88;1.50;;;24.30;1.00;;;;;;5087473;27;20457;-79
2023/08/17 13:59:49;;;;;;;5.82;1.75;;;24.30;1.00;;;;;;5090838;27;20131;-81
2023/08/17 14:02:15;;;;;;;3.58;1.20;;;24.30;1.00;;;;;;5091722;27;20564;-81
2023/08/17 14:04:40;;;;;;;4.50;1.50;;;24.10;1.00;;;;;;5087410;27;20085;-81
2023/08/17 14:07:06;;;;;;;6.93;1.55;;;24.10;1.00;;;;;;5074736;27;20542;-82